createdAt,value
2018-11-28T00:00:43.803Z,34.10
2018-11-28T00:03:11.276Z,30.97
2018-11-28T00:05:38.652Z,38.83
2018-11-28T00:08:06.126Z,39.27
2018-11-28T00:10:33.750Z,35.03
2018-11-28T00:13:01.261Z,36.53
2018-11-28T00:15:28.732Z,39.37
2018-11-28T00:17:56.179Z,35.63
2018-11-28T00:20:23.652Z,35.27
2018-11-28T00:22:51.198Z,43.07
2018-11-28T00:25:18.996Z,33.97
2018-11-28T00:27:46.535Z,41.73
2018-11-28T00:30:18.714Z,33.93
2018-11-28T00:32:46.255Z,35.83
2018-11-28T00:35:14.862Z,38.10
2018-11-28T00:37:42.300Z,38.23
2018-11-28T00:40:13.663Z,47.37
2018-11-28T00:42:41.395Z,36.07
2018-11-28T00:45:13.824Z,38.17
2018-11-28T00:47:41.344Z,39.63
2018-11-28T00:50:10.205Z,36.87
2018-11-28T00:52:37.880Z,40.93
2018-11-28T00:55:07.349Z,39.87
2018-11-28T00:57:34.947Z,39.30
2018-11-28T01:00:02.541Z,38.93
2018-11-28T01:02:29.981Z,39.33
2018-11-28T01:04:57.412Z,37.40
2018-11-28T01:07:24.833Z,39.20
2018-11-28T01:09:52.325Z,34.53
2018-11-28T01:12:19.720Z,33.10
2018-11-28T01:14:47.108Z,42.00
2018-11-28T01:17:14.523Z,35.40
2018-11-28T01:19:41.920Z,34.83
2018-11-28T01:22:09.422Z,32.40
2018-11-28T01:24:36.836Z,36.60
2018-11-28T01:27:04.783Z,34.53
2018-11-28T01:29:32.216Z,38.50
2018-11-28T01:31:59.658Z,33.63
2018-11-28T01:34:27.093Z,36.23
2018-11-28T01:36:54.550Z,36.40
2018-11-28T01:39:21.944Z,35.10
2018-11-28T01:41:49.444Z,41.07
2018-11-28T01:44:16.973Z,43.13
2018-11-28T01:46:44.496Z,38.23
2018-11-28T01:49:11.892Z,38.70
2018-11-28T01:51:39.376Z,37.90
2018-11-28T01:54:06.941Z,40.93
2018-11-28T01:56:34.517Z,33.60
2018-11-28T01:59:01.896Z,43.33
2018-11-28T02:01:29.340Z,40.87
2018-11-28T02:03:56.835Z,41.50
2018-11-28T02:06:24.408Z,39.87
2018-11-28T02:08:51.806Z,45.83
2018-11-28T02:11:21.992Z,46.93
2018-11-28T02:13:49.404Z,39.10
2018-11-28T02:16:16.880Z,41.23
2018-11-28T02:18:44.331Z,46.27
2018-11-28T02:21:11.716Z,45.40
2018-11-28T02:23:39.346Z,48.60
2018-11-28T02:26:06.864Z,44.20
2018-11-28T02:28:34.376Z,35.33
2018-11-28T02:31:01.968Z,37.77
2018-11-28T02:33:29.441Z,45.77
2018-11-28T02:37:27.869Z,44.03
2018-11-28T02:39:55.456Z,39.73
2018-11-28T02:42:22.860Z,35.77
2018-11-28T02:44:50.393Z,36.87
2018-11-28T02:47:17.838Z,44.50
2018-11-28T02:49:45.304Z,53.00
2018-11-28T02:52:12.728Z,44.70
2018-11-28T02:54:40.205Z,51.80
2018-11-28T02:57:07.615Z,46.07
2018-11-28T02:59:35.099Z,46.07
2018-11-28T03:02:02.616Z,48.27
2018-11-28T03:04:30.105Z,52.47
2018-11-28T03:06:57.533Z,40.90
2018-11-28T03:09:25.072Z,53.33
2018-11-28T03:11:52.595Z,48.00
2018-11-28T03:14:20.075Z,49.43
2018-11-28T03:16:47.519Z,43.50
2018-11-28T03:19:14.977Z,44.93
2018-11-28T03:21:42.452Z,49.53
2018-11-28T03:24:09.897Z,44.47
2018-11-28T03:26:37.329Z,50.33
2018-11-28T03:29:04.844Z,38.60
2018-11-28T03:31:32.495Z,48.37
2018-11-28T03:33:59.905Z,42.80
2018-11-28T03:36:27.503Z,56.77
2018-11-28T03:38:54.940Z,46.17
2018-11-28T03:41:22.388Z,45.33
2018-11-28T03:43:49.796Z,50.37
2018-11-28T03:46:17.219Z,46.70
2018-11-28T03:48:44.589Z,43.40
2018-11-28T03:51:12.071Z,45.50
2018-11-28T03:53:39.461Z,55.20
2018-11-28T03:56:06.927Z,53.23
2018-11-28T03:58:34.423Z,60.60
2018-11-28T04:01:01.852Z,45.97
2018-11-28T04:03:29.375Z,49.43
2018-11-28T04:05:56.924Z,54.40
2018-11-28T04:08:24.344Z,52.03
2018-11-28T04:10:51.819Z,40.43
2018-11-28T04:13:19.271Z,38.67
2018-11-28T04:15:46.656Z,40.93
2018-11-28T04:18:14.076Z,49.90
2018-11-28T04:20:41.587Z,44.73
2018-11-28T04:23:09.007Z,53.97
2018-11-28T04:25:36.379Z,40.10
2018-11-28T04:28:03.880Z,42.10
2018-11-28T04:30:31.409Z,49.80
2018-11-28T04:32:58.976Z,43.50
2018-11-28T04:35:26.393Z,48.97
2018-11-28T04:37:53.814Z,45.17
2018-11-28T04:40:21.571Z,42.60
2018-11-28T04:42:49.401Z,41.50
2018-11-28T04:45:21.710Z,45.30
2018-11-28T04:47:50.005Z,40.70
2018-11-28T04:50:17.484Z,38.23
2018-11-28T04:52:45.024Z,39.27
2018-11-28T04:55:19.262Z,39.20
2018-11-28T04:57:46.953Z,37.97
2018-11-28T05:00:17.554Z,41.80
2018-11-28T05:02:45.031Z,34.07
2018-11-28T05:05:12.467Z,35.47
2018-11-28T05:07:40.545Z,38.00
2018-11-28T05:10:10.293Z,34.13
2018-11-28T05:12:37.764Z,34.73
2018-11-28T05:15:13.653Z,38.43
2018-11-28T05:17:41.381Z,36.30
2018-11-28T05:20:10.195Z,40.63
2018-11-28T05:22:37.758Z,39.07
2018-11-28T05:25:07.556Z,37.47
2018-11-28T05:27:35.026Z,41.20
2018-11-28T05:30:02.926Z,37.70
2018-11-28T05:32:30.361Z,35.67
2018-11-28T05:34:57.822Z,41.07
2018-11-28T05:37:25.246Z,37.60
2018-11-28T05:39:52.725Z,34.83
2018-11-28T05:42:20.190Z,35.67
2018-11-28T05:44:47.710Z,37.57
2018-11-28T05:47:15.127Z,37.90
2018-11-28T05:49:42.581Z,35.77
2018-11-28T05:52:10.233Z,31.50
2018-11-28T05:54:37.715Z,35.43
2018-11-28T05:57:05.714Z,36.77
2018-11-28T05:59:33.239Z,37.23
2018-11-28T06:02:00.759Z,33.53
2018-11-28T06:04:28.179Z,37.23
2018-11-28T06:06:55.651Z,35.43
2018-11-28T06:09:23.097Z,33.63
2018-11-28T06:11:50.535Z,42.83
2018-11-28T06:14:18.079Z,37.27
2018-11-28T06:16:45.523Z,34.60
2018-11-28T06:19:12.934Z,43.50
2018-11-28T06:21:40.416Z,35.13
2018-11-28T06:24:07.841Z,41.00
2018-11-28T06:26:35.349Z,36.40
2018-11-28T06:29:02.765Z,40.13
2018-11-28T06:31:30.279Z,39.57
2018-11-28T06:33:57.671Z,35.50
2018-11-28T06:36:25.105Z,36.87
2018-11-28T06:38:52.639Z,39.60
2018-11-28T06:41:20.070Z,40.10
2018-11-28T06:43:47.507Z,37.87
2018-11-28T06:46:15.015Z,39.20
2018-11-28T06:48:42.467Z,39.17
2018-11-28T06:51:09.929Z,33.67
2018-11-28T06:53:37.375Z,39.37
2018-11-28T06:56:04.915Z,35.63
2018-11-28T06:58:32.491Z,36.87
2018-11-28T07:01:00.023Z,39.47
2018-11-28T07:03:27.507Z,33.37
2018-11-28T07:05:54.957Z,37.87
2018-11-28T07:08:22.410Z,38.30
2018-11-28T07:10:49.989Z,40.03
2018-11-28T07:13:17.500Z,36.63
2018-11-28T07:15:44.946Z,41.80
2018-11-28T07:18:23.910Z,43.57
2018-11-28T07:20:51.426Z,42.57
2018-11-28T07:23:18.926Z,42.23
2018-11-28T07:25:46.396Z,45.87
2018-11-28T07:28:13.932Z,39.33
2018-11-28T07:30:41.398Z,34.50
2018-11-28T07:33:10.451Z,43.27
2018-11-28T07:35:37.420Z,43.30
2018-11-28T07:38:05.592Z,47.70
2018-11-28T07:40:33.128Z,40.33
2018-11-28T07:43:10.631Z,40.13
2018-11-28T07:45:42.547Z,39.40
2018-11-28T07:48:10.002Z,48.70
2018-11-28T07:50:37.508Z,39.47
2018-11-28T07:53:05.342Z,37.83
2018-11-28T07:55:32.734Z,43.57
2018-11-28T07:58:00.190Z,41.60
2018-11-28T08:00:27.796Z,42.33
2018-11-28T08:02:55.361Z,44.57
2018-11-28T08:05:22.920Z,44.57
2018-11-28T08:07:50.412Z,34.33
2018-11-28T08:10:26.252Z,44.30
2018-11-28T08:12:56.992Z,48.47
2018-11-28T08:15:24.531Z,41.23
2018-11-28T08:17:51.928Z,51.47
2018-11-28T08:20:19.558Z,37.17
2018-11-28T08:22:47.050Z,35.93
2018-11-28T08:25:15.674Z,43.50
2018-11-28T08:27:44.260Z,38.50
2018-11-28T08:30:14.422Z,48.20
2018-11-28T08:32:42.012Z,41.40
2018-11-28T08:35:10.232Z,40.97
2018-11-28T08:37:37.679Z,39.40
2018-11-28T08:40:08.946Z,42.37
2018-11-28T08:42:36.386Z,45.33
2018-11-28T08:45:04.254Z,39.07
2018-11-28T08:47:31.698Z,40.30
2018-11-28T08:49:59.120Z,45.80
2018-11-28T08:52:26.612Z,38.43
2018-11-28T08:54:54.048Z,46.33
2018-11-28T08:57:21.656Z,46.30
2018-11-28T08:59:49.126Z,40.30
2018-11-28T09:02:16.620Z,44.43
2018-11-28T09:04:44.319Z,40.70
2018-11-28T09:07:11.785Z,43.20
2018-11-28T09:09:39.173Z,48.70
2018-11-28T09:12:06.727Z,38.20
2018-11-28T09:14:34.153Z,40.10
2018-11-28T09:17:01.714Z,42.27
2018-11-28T09:19:29.165Z,43.73
2018-11-28T09:21:56.642Z,35.67
2018-11-28T09:24:24.032Z,39.67
2018-11-28T09:26:51.488Z,57.97
2018-11-28T09:29:18.900Z,41.90
2018-11-28T09:31:46.350Z,43.97
2018-11-28T09:34:13.796Z,40.57
2018-11-28T09:36:41.199Z,40.73
2018-11-28T09:39:08.673Z,43.03
2018-11-28T09:41:36.284Z,38.70
2018-11-28T09:44:03.779Z,39.90
2018-11-28T09:46:31.206Z,44.13
2018-11-28T09:48:58.988Z,39.00
2018-11-28T09:51:26.406Z,40.03
2018-11-28T09:53:53.823Z,37.83
2018-11-28T09:56:21.384Z,38.47
2018-11-28T09:58:48.952Z,35.93
2018-11-28T10:01:16.439Z,35.77
2018-11-28T10:03:43.916Z,39.10
2018-11-28T10:06:11.370Z,35.50
2018-11-28T10:08:38.944Z,37.70
2018-11-28T10:11:06.416Z,35.40
2018-11-28T10:13:33.842Z,34.73
2018-11-28T10:16:01.906Z,32.80
2018-11-28T10:18:28.763Z,39.40
2018-11-28T10:20:56.176Z,41.13
2018-11-28T10:23:23.572Z,37.73
2018-11-28T10:25:51.102Z,37.00
2018-11-28T10:28:18.723Z,30.83
2018-11-28T10:30:46.233Z,34.53
2018-11-28T10:33:13.653Z,35.77
2018-11-28T10:35:41.353Z,37.33
2018-11-28T10:38:08.978Z,35.50
2018-11-28T10:40:37.129Z,40.53
2018-11-28T10:43:05.443Z,34.77
2018-11-28T10:45:32.965Z,30.87
2018-11-28T10:48:00.483Z,35.57
2018-11-28T10:50:27.962Z,35.63
2018-11-28T10:52:55.474Z,33.60
2018-11-28T10:55:24.110Z,30.47
2018-11-28T10:57:51.643Z,39.63
2018-11-28T11:00:25.841Z,29.57
2018-11-28T11:02:59.064Z,37.23
2018-11-28T11:05:32.318Z,33.03
2018-11-28T11:08:05.588Z,34.27
2018-11-28T11:10:38.669Z,31.97
2018-11-28T11:13:11.857Z,30.97
2018-11-28T11:15:39.454Z,33.03
2018-11-28T11:18:10.699Z,35.03
2018-11-28T11:20:37.561Z,34.27
2018-11-28T11:23:06.258Z,30.63
2018-11-28T11:25:33.951Z,29.90
2018-11-28T11:28:01.472Z,32.23
2018-11-28T11:30:29.045Z,28.90
2018-11-28T11:32:56.744Z,31.60
2018-11-28T11:35:24.231Z,31.50
2018-11-28T11:37:51.634Z,25.10
2018-11-28T11:40:19.139Z,33.00
2018-11-28T11:42:46.537Z,35.93
2018-11-28T11:45:14.989Z,32.10
2018-11-28T11:47:42.742Z,31.73
2018-11-28T11:50:14.295Z,31.50
2018-11-28T11:52:41.811Z,35.97
2018-11-28T11:55:11.163Z,32.57
2018-11-28T11:57:38.370Z,29.47
2018-11-28T12:00:11.257Z,29.13
2018-11-28T12:02:39.420Z,27.23
2018-11-28T12:05:08.609Z,31.40
2018-11-28T12:07:36.453Z,30.40
2018-11-28T12:10:09.052Z,26.70
2018-11-28T12:12:35.370Z,26.73
2018-11-28T12:15:03.044Z,32.83
2018-11-28T12:17:30.691Z,30.43
2018-11-28T12:19:58.116Z,29.50
2018-11-28T12:22:25.701Z,29.37
2018-11-28T12:24:53.137Z,30.47
2018-11-28T12:27:20.744Z,32.27
2018-11-28T12:29:48.279Z,28.97
2018-11-28T12:32:15.753Z,29.93
2018-11-28T12:34:43.269Z,29.77
2018-11-28T12:37:10.719Z,22.33
2018-11-28T12:39:38.258Z,22.30
2018-11-28T12:42:06.037Z,29.13
2018-11-28T12:44:33.441Z,24.97
2018-11-28T12:47:00.883Z,29.00
2018-11-28T12:49:28.419Z,27.73
2018-11-28T12:51:55.880Z,25.07
2018-11-28T12:54:23.326Z,24.87
2018-11-28T12:56:50.799Z,26.47
2018-11-28T12:59:18.395Z,27.43
2018-11-28T13:01:45.794Z,30.67
2018-11-28T13:04:13.376Z,29.47
2018-11-28T13:06:40.829Z,29.47
2018-11-28T13:09:08.454Z,29.63
2018-11-28T13:11:36.311Z,27.30
2018-11-28T13:14:03.850Z,28.10
2018-11-28T13:16:31.304Z,23.60
2018-11-28T13:18:58.716Z,23.63
2018-11-28T13:21:26.213Z,24.13
2018-11-28T13:23:53.656Z,26.73
2018-11-28T13:26:21.192Z,26.13
2018-11-28T13:28:48.628Z,27.60
2018-11-28T13:31:16.156Z,29.30
2018-11-28T13:33:43.612Z,30.90
2018-11-28T13:36:11.075Z,25.73
2018-11-28T13:38:38.653Z,25.73
2018-11-28T13:41:06.309Z,24.43
2018-11-28T13:43:33.914Z,25.33
2018-11-28T13:46:07.060Z,22.47
2018-11-28T13:48:29.310Z,27.23
2018-11-28T13:50:56.829Z,30.70
2018-11-28T13:53:24.286Z,23.97
2018-11-28T13:56:57.447Z,26.37
2018-11-28T13:58:23.203Z,23.23
2018-11-28T14:00:50.629Z,24.17
2018-11-28T14:03:18.203Z,22.37
2018-11-28T14:05:45.656Z,24.70
2018-11-28T14:08:13.083Z,28.60
2018-11-28T14:10:40.548Z,33.50
2018-11-28T14:13:08.146Z,21.53
2018-11-28T14:15:35.595Z,28.53
2018-11-28T14:18:06.715Z,24.40
2018-11-28T14:20:34.135Z,26.20
2018-11-28T14:23:01.613Z,30.83
2018-11-28T14:25:29.157Z,28.17
2018-11-28T14:27:56.730Z,24.60
2018-11-28T14:30:25.250Z,25.10
2018-11-28T14:32:52.349Z,24.60
2018-11-28T14:35:20.767Z,27.37
2018-11-28T14:37:48.259Z,22.83
2018-11-28T14:40:17.039Z,28.67
2018-11-28T14:42:45.936Z,22.60
2018-11-28T14:45:14.656Z,21.30
2018-11-28T14:47:42.388Z,23.80
2018-11-28T14:50:12.995Z,21.17
2018-11-28T14:52:40.515Z,22.93
2018-11-28T14:55:12.387Z,20.40
2018-11-28T14:57:40.253Z,25.40
2018-11-28T15:00:12.321Z,25.10
2018-11-28T15:02:39.850Z,23.87
2018-11-28T15:05:19.415Z,27.43
2018-11-28T15:07:47.329Z,19.10
2018-11-28T15:10:15.512Z,27.57
2018-11-28T15:12:43.299Z,22.07
2018-11-28T15:15:10.794Z,25.90
2018-11-28T15:17:38.260Z,23.47
2018-11-28T15:20:07.312Z,25.60
2018-11-28T15:22:34.834Z,21.80
2018-11-28T15:25:03.720Z,23.30
2018-11-28T15:27:31.274Z,26.60
2018-11-28T15:29:59.346Z,24.37
2018-11-28T15:32:26.875Z,22.87
2018-11-28T15:34:57.897Z,23.90
2018-11-28T15:37:21.845Z,21.40
2018-11-28T15:39:49.368Z,23.50
2018-11-28T15:42:16.965Z,23.63
2018-11-28T15:44:44.368Z,22.23
2018-11-28T15:47:11.812Z,22.57
2018-11-28T15:49:39.257Z,22.80
2018-11-28T15:52:06.748Z,22.87
2018-11-28T15:54:34.164Z,22.73
2018-11-28T15:57:01.972Z,22.70
2018-11-28T15:59:29.558Z,24.20
2018-11-28T16:01:57.023Z,24.67
2018-11-28T16:04:24.449Z,25.63
2018-11-28T16:06:52.008Z,31.83
2018-11-28T16:09:25.017Z,27.30
2018-11-28T16:11:52.485Z,26.20
2018-11-28T16:14:20.828Z,32.30
2018-11-28T16:16:48.395Z,23.83
2018-11-28T16:19:15.801Z,26.80
2018-11-28T16:21:43.236Z,26.10
2018-11-28T16:24:10.753Z,28.20
2018-11-28T16:26:38.484Z,25.33
2018-11-28T16:29:05.924Z,23.07
2018-11-28T16:31:33.404Z,24.70
2018-11-28T16:34:00.793Z,25.40
2018-11-28T16:36:28.417Z,23.67
2018-11-28T16:38:55.953Z,26.23
2018-11-28T16:41:23.368Z,25.57
2018-11-28T16:43:51.002Z,24.20
2018-11-28T16:46:18.441Z,30.43
2018-11-28T16:48:45.842Z,27.70
2018-11-28T16:51:13.322Z,30.80
2018-11-28T16:53:40.832Z,30.87
2018-11-28T16:56:08.450Z,33.33
2018-11-28T16:58:35.944Z,28.17
2018-11-28T17:01:03.610Z,32.00
2018-11-28T17:03:31.022Z,28.57
2018-11-28T17:05:58.614Z,25.13
2018-11-28T17:08:26.028Z,28.90
2018-11-28T17:10:53.512Z,29.03
2018-11-28T17:13:21.064Z,39.00
2018-11-28T17:15:48.527Z,27.00
2018-11-28T17:18:15.949Z,28.67
2018-11-28T17:20:43.401Z,22.97
2018-11-28T17:23:10.848Z,26.90
2018-11-28T17:25:38.575Z,26.33
2018-11-28T17:28:06.192Z,31.20
2018-11-28T17:30:33.998Z,22.73
2018-11-28T17:33:01.412Z,27.50
2018-11-28T17:35:28.861Z,22.20
2018-11-28T17:37:56.318Z,22.87
2018-11-28T17:40:25.467Z,26.53
2018-11-28T17:42:54.665Z,24.17
2018-11-28T17:45:22.668Z,27.67
2018-11-28T17:47:50.407Z,26.90
2018-11-28T17:50:22.121Z,25.70
2018-11-28T17:52:56.400Z,23.87
2018-11-28T17:55:24.755Z,24.83
2018-11-28T17:57:52.328Z,23.83
2018-11-28T18:00:19.902Z,22.53
2018-11-28T18:02:47.404Z,25.10
2018-11-28T18:05:14.862Z,21.83
2018-11-28T18:07:42.315Z,25.63
2018-11-28T18:10:13.646Z,21.13
2018-11-28T18:12:52.408Z,20.70
2018-11-28T18:15:20.355Z,28.30
2018-11-28T18:17:47.778Z,19.60
2018-11-28T18:20:15.560Z,25.27
2018-11-28T18:22:43.047Z,22.80
2018-11-28T18:25:10.550Z,25.77
2018-11-28T18:27:38.099Z,19.03
2018-11-28T18:30:07.500Z,25.90
2018-11-28T18:32:34.939Z,21.13
2018-11-28T18:35:02.393Z,24.20
2018-11-28T18:37:29.954Z,25.40
2018-11-28T18:39:57.400Z,27.00
2018-11-28T18:42:24.831Z,23.80
2018-11-28T18:44:52.427Z,26.93
2018-11-28T18:47:19.884Z,21.07
2018-11-28T18:49:47.428Z,21.80
2018-11-28T18:52:15.041Z,22.90
2018-11-28T18:54:42.435Z,21.67
2018-11-28T18:57:09.923Z,24.53
2018-11-28T18:59:37.379Z,25.03
2018-11-28T19:02:05.780Z,24.23
2018-11-28T19:04:33.235Z,27.50
2018-11-28T19:07:00.763Z,23.90
2018-11-28T19:09:33.798Z,24.50
2018-11-28T19:12:01.244Z,25.70
2018-11-28T19:14:28.672Z,25.20
2018-11-28T19:16:56.253Z,26.83
2018-11-28T19:19:23.869Z,21.30
2018-11-28T19:21:51.353Z,22.20
2018-11-28T19:24:18.768Z,23.33
2018-11-28T19:26:46.240Z,21.93
2018-11-28T19:29:13.710Z,24.67
2018-11-28T19:31:41.321Z,26.17
2018-11-28T19:34:08.759Z,23.77
2018-11-28T19:36:36.260Z,19.77
2018-11-28T19:39:06.568Z,24.17
2018-11-28T19:41:34.155Z,21.27
2018-11-28T19:44:01.743Z,20.30
2018-11-28T19:46:29.322Z,23.20
2018-11-28T19:48:57.010Z,23.63
2018-11-28T19:51:24.995Z,21.10
2018-11-28T19:53:52.764Z,24.27
2018-11-28T19:56:20.249Z,21.40
2018-11-28T19:58:47.746Z,21.13
2018-11-28T20:01:15.378Z,23.50
2018-11-28T20:03:42.848Z,23.03
2018-11-28T20:06:10.336Z,24.07
2018-11-28T20:08:37.856Z,21.53
2018-11-28T20:11:05.936Z,21.80
2018-11-28T20:13:33.361Z,21.33
2018-11-28T20:16:00.891Z,23.10
2018-11-28T20:18:28.337Z,21.53
2018-11-28T20:20:55.874Z,22.53
2018-11-28T20:23:23.352Z,22.33
2018-11-28T20:25:51.005Z,23.77
2018-11-28T20:28:18.416Z,22.63
2018-11-28T20:30:45.930Z,26.30
2018-11-28T20:33:14.901Z,21.27
2018-11-28T20:35:43.481Z,25.90
2018-11-28T20:38:43.336Z,21.50
2018-11-28T20:41:10.860Z,24.00
2018-11-28T20:43:38.387Z,26.23
2018-11-28T20:46:06.526Z,21.10
2018-11-28T20:48:34.039Z,21.20
2018-11-28T20:51:01.518Z,24.00
2018-11-28T20:53:29.193Z,24.30
2018-11-28T20:55:56.712Z,22.80
2018-11-28T20:58:24.170Z,26.83
2018-11-28T21:00:51.728Z,32.20
2018-11-28T21:03:19.326Z,26.67
2018-11-28T21:05:46.884Z,23.07
2018-11-28T21:08:14.404Z,27.43
2018-11-28T21:10:41.938Z,23.00
2018-11-28T21:13:10.916Z,23.90
2018-11-28T21:15:39.085Z,30.33
2018-11-28T21:18:07.734Z,27.23
2018-11-28T21:20:35.284Z,26.27
2018-11-28T21:23:07.711Z,26.63
2018-11-28T21:25:35.528Z,27.23
2018-11-28T21:28:04.267Z,26.80
2018-11-28T21:30:32.561Z,30.93
2018-11-28T21:33:00.160Z,28.13
2018-11-28T21:35:29.703Z,27.87
2018-11-28T21:37:57.159Z,30.63
2018-11-28T21:40:24.681Z,32.60
2018-11-28T21:42:52.124Z,30.27
2018-11-28T21:45:20.637Z,33.57
2018-11-28T21:47:48.093Z,25.87
2018-11-28T21:50:16.763Z,25.83
2018-11-28T21:52:44.258Z,32.50
2018-11-28T21:55:14.179Z,31.73
2018-11-28T21:57:41.753Z,34.53
2018-11-28T22:00:13.370Z,30.47
2018-11-28T22:02:40.880Z,29.77
2018-11-28T22:05:09.497Z,29.17
2018-11-28T22:07:37.012Z,32.97
2018-11-28T22:10:07.245Z,29.97
2018-11-28T22:12:34.681Z,28.77
2018-11-28T22:15:02.323Z,33.93
2018-11-28T22:17:29.857Z,29.60
2018-11-28T22:19:57.343Z,32.27
2018-11-28T22:22:24.817Z,34.17
2018-11-28T22:24:52.234Z,36.63
2018-11-28T22:27:19.687Z,34.93
2018-11-28T22:29:47.157Z,37.63
2018-11-28T22:32:14.629Z,37.13
2018-11-28T22:34:42.109Z,35.27
2018-11-28T22:37:09.736Z,37.07
2018-11-28T22:39:37.209Z,41.43
2018-11-28T22:42:05.022Z,37.80
2018-11-28T22:44:32.505Z,38.07
2018-11-28T22:46:59.951Z,37.33
2018-11-28T22:49:27.399Z,39.97
2018-11-28T22:51:54.983Z,34.67
2018-11-28T22:54:22.400Z,40.23
2018-11-28T22:56:49.886Z,37.80
2018-11-28T22:59:17.690Z,40.20
2018-11-28T23:02:55.667Z,37.87
2018-11-28T23:05:26.962Z,40.87
2018-11-28T23:07:55.605Z,34.57
2018-11-28T23:10:23.140Z,37.17
2018-11-28T23:12:50.900Z,30.27
2018-11-28T23:15:18.384Z,31.63
2018-11-28T23:17:45.920Z,34.47
2018-11-28T23:20:13.388Z,35.90
2018-11-28T23:22:40.919Z,35.00
2018-11-28T23:25:11.131Z,35.07
2018-11-28T23:27:38.722Z,39.70
2018-11-28T23:30:09.455Z,37.53
2018-11-28T23:32:36.949Z,37.30
2018-11-28T23:35:06.200Z,38.90
2018-11-28T23:37:33.675Z,38.23
2018-11-28T23:40:01.098Z,38.87
2018-11-28T23:42:28.635Z,38.53
2018-11-28T23:44:56.112Z,40.47
2018-11-28T23:47:24.658Z,40.50
2018-11-28T23:49:52.105Z,43.80
2018-11-28T23:52:19.553Z,44.13
2018-11-28T23:54:46.951Z,40.90
2018-11-28T23:57:14.409Z,39.83
2018-11-28T23:59:41.844Z,37.90
